Time;durP1;ratioP1;P1;durP2;ratioP2;P2;SDS_P1;SDS_P2;PMS_P1;PMS_P2;Temp;Humidity;BMP_temperature;BMP_pressure;BME280_temperature;BME280_humidity;BME280_pressure;Samples;Min_cycle;Max_cycle;Signal;HPM_P1;HPM_P2
2022/05/19 00:02:01;;;;;;;;;5.50;5.50;;;;;19.16;61.95;101760.59;5038027;28;8848;-66
2022/05/19 00:04:28;;;;;;;;;7.75;7.00;;;;;19.15;61.86;101763.53;5036309;28;8832;-66
2022/05/19 00:06:55;;;;;;;;;8.33;8.33;;;;;19.13;61.94;101762.94;5024459;28;8841;-67
2022/05/19 00:09:22;;;;;;;;;8.00;8.00;;;;;19.13;61.91;101762.94;5036815;28;8917;-66
2022/05/19 00:11:49;;;;;;;;;8.75;8.00;;;;;19.14;61.88;101750.94;5038587;28;8898;-66
2022/05/19 00:14:16;;;;;;;;;7.50;7.50;;;;;19.15;62.10;101753.44;5038011;28;8899;-65
2022/05/19 00:16:44;;;;;;;;;10.00;9.00;;;;;19.13;62.25;101754.75;5030021;28;9741;-66
2022/05/19 00:19:12;;;;;;;;;8.00;8.00;;;;;19.12;62.07;101743.00;5033840;28;8831;-67
2022/05/19 00:21:39;;;;;;;;;7.00;6.00;;;;;19.12;62.13;101737.53;5025565;28;8910;-66
2022/05/19 00:24:07;;;;;;;;;9.50;7.50;;;;;19.12;62.08;101744.88;5027326;28;8821;-64
2022/05/19 00:26:33;;;;;;;;;11.33;9.67;;;;;19.13;62.49;101746.56;5039808;28;8838;-67
2022/05/19 00:29:00;;;;;;;;;7.50;7.50;;;;;19.13;62.39;101733.75;5038439;28;9108;-65
2022/05/19 00:31:27;;;;;;;;;6.25;6.00;;;;;19.06;62.78;101730.25;5038877;28;8836;-66
2022/05/19 00:33:53;;;;;;;;;8.25;8.00;;;;;19.06;62.59;101749.38;5033535;28;8802;-65
2022/05/19 00:36:20;;;;;;;;;9.00;8.25;;;;;19.08;62.52;101760.03;5034430;28;8847;-66
2022/05/19 00:38:47;;;;;;;;;4.25;4.25;;;;;19.11;62.51;101759.59;5035696;28;9599;-66
2022/05/19 00:41:14;;;;;;;;;6.75;6.00;;;;;19.10;62.37;101744.28;5038629;28;8885;-66
2022/05/19 00:43:45;;;;;;;;;6.75;5.75;;;;;19.07;62.70;101734.66;5033735;28;8809;-66
2022/05/19 00:46:22;;;;;;;;;9.25;9.25;;;;;19.03;62.53;101728.81;5037358;28;8853;-67
2022/05/19 00:49:01;;;;;;;;;10.00;8.25;;;;;19.06;62.60;101724.81;5072163;23;8963;-65
2022/05/19 00:51:40;;;;;;;;;8.00;8.00;;;;;19.04;62.41;101710.56;5061532;28;8831;-65
2022/05/19 00:54:12;;;;;;;;;7.00;7.00;;;;;19.05;62.87;101709.50;5082246;28;8934;-64
2022/05/19 00:56:46;;;;;;;;;9.75;9.75;;;;;19.09;62.63;101701.69;5067809;28;8831;-64
2022/05/19 00:59:23;;;;;;;;;12.25;10.50;;;;;19.09;62.28;101697.06;5064763;28;8815;-66
2022/05/19 01:01:51;;;;;;;;;10.75;9.50;;;;;19.12;62.34;101703.94;5073721;28;8835;-65
2022/05/19 01:04:31;;;;;;;;;8.25;8.25;;;;;19.17;62.18;101704.09;5059828;28;8912;-65
2022/05/19 01:07:04;;;;;;;;;8.75;8.00;;;;;19.18;62.18;101695.66;5069576;28;8854;-66
2022/05/19 01:09:35;;;;;;;;;10.00;10.00;;;;;19.19;62.09;101710.16;5064165;28;8905;-65
2022/05/19 01:12:03;;;;;;;;;13.00;12.00;;;;;19.21;62.27;101717.06;5069333;28;8866;-65
2022/05/19 01:14:31;;;;;;;;;9.00;9.00;;;;;19.22;62.04;101706.97;5072324;28;8826;-65
2022/05/19 01:16:58;;;;;;;;;8.25;8.25;;;;;19.17;62.37;101698.66;5062610;28;8843;-65
2022/05/19 01:19:35;;;;;;;;;7.75;7.75;;;;;19.15;62.35;101701.59;5073470;28;8920;-65
2022/05/19 01:22:18;;;;;;;;;6.25;6.00;;;;;19.13;62.62;101690.06;5073808;28;8911;-65
2022/05/19 01:25:07;;;;;;;;;8.75;7.50;;;;;19.20;62.54;101679.06;5069440;28;8875;-65
2022/05/19 01:27:36;;;;;;;;;12.75;10.25;;;;;19.15;62.25;101687.09;5054999;28;8859;-65
2022/05/19 01:30:05;;;;;;;;;11.75;11.50;;;;;19.06;62.33;101678.41;5071892;28;8913;-65
2022/05/19 01:32:32;;;;;;;;;9.00;9.00;;;;;19.03;62.75;101674.22;5072281;28;9602;-65
2022/05/19 01:34:59;;;;;;;;;11.25;10.00;;;;;19.07;62.59;101676.50;5074725;28;8835;-65
2022/05/19 01:37:26;;;;;;;;;11.25;10.00;;;;;19.10;62.59;101667.88;5073936;28;8839;-65
2022/05/19 01:40:27;;;;;;;;;14.00;12.00;;;;;19.14;62.74;101658.97;5074002;28;8860;-65
2022/05/19 01:42:56;;;;;;;;;14.00;12.25;;;;;19.16;62.73;101654.16;5073743;28;8977;-65
2022/05/19 01:45:52;;;;;;;;;11.00;11.00;;;;;19.16;62.64;101642.38;5074277;28;8831;-65
2022/05/19 01:48:39;;;;;;;;;10.75;8.75;;;;;19.18;62.60;101651.16;5072201;28;8843;-65
2022/05/19 01:51:22;;;;;;;;;15.00;14.00;;;;;19.18;62.63;101643.81;5065384;28;8837;-65
2022/05/19 01:54:17;;;;;;;;;9.00;9.00;;;;;19.21;62.71;101635.16;5070239;28;8967;-65
2022/05/19 01:56:53;;;;;;;;;11.00;11.00;;;;;19.18;62.72;101629.34;5068685;28;8839;-65
2022/05/19 01:59:34;;;;;;;;;8.00;8.00;;;;;19.18;62.79;101629.34;5065996;28;8925;-64
2022/05/19 02:02:12;;;;;;;;;11.75;9.75;;;;;19.22;62.69;101638.72;5074717;28;8928;-65
2022/05/19 02:04:49;;;;;;;;;14.00;14.00;;;;;19.22;62.89;101634.09;5063866;28;8967;-65
2022/05/19 02:07:18;;;;;;;;;12.50;11.75;;;;;19.24;62.98;101644.75;5068026;28;8941;-65
2022/05/19 02:09:51;;;;;;;;;9.75;9.75;;;;;19.24;63.07;101640.16;5068238;28;8826;-65
2022/05/19 02:12:18;;;;;;;;;8.75;8.00;;;;;19.24;62.93;101621.06;5066157;28;8821;-65
2022/05/19 02:14:52;;;;;;;;;9.00;9.00;;;;;19.25;63.25;101624.63;5066885;28;8827;-65
2022/05/19 02:17:22;;;;;;;;;13.25;10.50;;;;;19.26;63.10;101637.19;5071670;28;8843;-64
2022/05/19 02:19:54;;;;;;;;;9.00;9.00;;;;;19.25;63.33;101633.63;5071710;28;9509;-65
2022/05/19 02:22:27;;;;;;;;;9.50;9.50;;;;;19.24;63.55;101615.59;5069717;28;8847;-65
2022/05/19 02:24:57;;;;;;;;;8.00;7.75;;;;;19.24;63.47;101604.69;5067331;28;9622;-66
2022/05/19 02:27:39;;;;;;;;;12.00;11.00;;;;;19.25;63.71;101602.78;5071073;28;8912;-65
2022/05/19 02:30:11;;;;;;;;;13.25;12.00;;;;;19.24;63.82;101604.69;5071536;28;9059;-65
2022/05/19 02:32:38;;;;;;;;;12.00;11.00;;;;;19.23;63.97;101605.72;5072034;28;8816;-64
2022/05/19 02:35:06;;;;;;;;;9.25;9.00;;;;;19.24;64.38;101604.69;5070704;28;8823;-65
2022/05/19 02:37:32;;;;;;;;;8.50;8.50;;;;;19.26;64.19;101616.19;5070320;28;8976;-64
2022/05/19 02:39:59;;;;;;;;;8.50;7.75;;;;;19.27;64.26;101611.56;5066851;28;8860;-65
2022/05/19 02:42:26;;;;;;;;;11.50;11.25;;;;;19.28;64.22;101607.75;5069706;28;8847;-64
2022/05/19 02:44:52;;;;;;;;;16.67;16.67;;;;;19.26;64.32;101602.53;5068457;28;8847;-64
2022/05/19 02:47:19;;;;;;;;;12.75;12.25;;;;;19.21;64.59;101602.41;5071021;28;9012;-65
2022/05/19 02:49:45;;;;;;;;;11.25;11.00;;;;;19.17;64.75;101605.84;5067068;28;8835;-64
2022/05/19 02:52:15;;;;;;;;;14.75;13.50;;;;;19.21;64.82;101631.59;5068830;28;10657;-65
2022/05/19 02:54:41;;;;;;;;;23.67;23.33;;;;;19.17;64.94;101677.63;5069596;28;8815;-64
2022/05/19 02:57:08;;;;;;;;;28.00;25.33;;;;;19.11;65.81;101733.13;5071814;28;9319;-65
2022/05/19 02:59:34;;;;;;;;;25.00;24.33;;;;;19.07;67.49;101739.28;5069812;28;9233;-64
2022/05/19 03:02:01;;;;;;;;;19.00;18.00;;;;;19.02;68.39;101737.22;5070965;28;9416;-64
2022/05/19 03:04:28;;;;;;;;;21.33;20.00;;;;;18.95;69.30;101733.75;5071772;28;9144;-64
2022/05/19 03:06:54;;;;;;;;;20.33;19.67;;;;;18.88;69.98;101736.56;5070240;28;9245;-65
2022/05/19 03:09:21;;;;;;;;;27.25;25.00;;;;;18.82;70.30;101729.28;5066719;28;9346;-65
2022/05/19 03:11:48;;;;;;;;;26.75;26.25;;;;;18.72;70.80;101731.72;5071029;28;9461;-64
2022/05/19 03:14:14;;;;;;;;;24.75;24.00;;;;;18.61;71.37;101752.34;5070378;28;9437;-64
2022/05/19 03:16:41;;;;;;;;;28.25;28.25;;;;;18.59;71.65;101738.09;5066950;28;9516;-65
2022/05/19 03:19:09;;;;;;;;;35.00;32.00;;;;;18.58;71.82;101750.06;5068384;28;9384;-64
2022/05/19 03:21:36;;;;;;;;;25.25;24.00;;;;;18.56;72.41;101746.75;5070637;28;9772;-62
2022/05/19 03:24:03;;;;;;;;;31.25;28.00;;;;;18.53;72.54;101747.19;5063681;28;9393;-62
2022/05/19 03:26:30;;;;;;;;;32.75;31.75;;;;;18.51;73.08;101768.38;5069771;28;9674;-65
2022/05/19 03:28:58;;;;;;;;;21.75;21.25;;;;;18.50;72.96;101761.25;5068755;28;9674;-64
2022/05/19 03:31:24;;;;;;;;;29.33;25.33;;;;;18.48;73.14;101766.13;5055428;28;9533;-65
2022/05/19 03:33:51;;;;;;;;;20.00;19.67;;;;;18.42;73.61;101762.38;5067239;28;9295;-65
2022/05/19 03:36:18;;;;;;;;;17.67;16.67;;;;;18.38;73.25;101779.41;5062682;28;9307;-65
2022/05/19 03:38:45;;;;;;;;;11.00;10.00;;;;;18.35;73.42;101778.00;5057286;28;9162;-64
2022/05/19 03:41:11;;;;;;;;;13.00;13.00;;;;;18.31;73.10;101765.00;5057803;28;8852;-65
2022/05/19 03:43:38;;;;;;;;;8.67;8.67;;;;;18.32;72.98;101762.06;5062719;28;8989;-65
2022/05/19 03:46:04;;;;;;;;;9.00;7.25;;;;;18.30;72.92;101775.06;5051242;28;8968;-65
2022/05/19 03:48:36;;;;;;;;;7.75;7.00;;;;;18.26;72.88;101768.41;5068868;28;8833;-65
2022/05/19 03:51:07;;;;;;;;;4.00;4.00;;;;;18.23;72.40;101757.94;5068154;28;8894;-64
2022/05/19 03:53:33;;;;;;;;;5.75;4.00;;;;;18.18;72.23;101764.06;5067988;28;8858;-65
2022/05/19 03:56:00;;;;;;;;;3.50;3.50;;;;;18.17;72.19;101748.78;5066608;28;8853;-65
2022/05/19 03:58:26;;;;;;;;;4.00;3.50;;;;;18.20;72.27;101750.22;5069627;28;8820;-65
2022/05/19 04:00:53;;;;;;;;;2.00;2.00;;;;;18.21;72.17;101749.16;5067705;28;8855;-65
2022/05/19 04:03:19;;;;;;;;;2.75;2.00;;;;;18.17;71.89;101742.50;5055261;28;8911;-65
2022/05/19 04:05:46;;;;;;;;;2.50;2.00;;;;;18.11;71.74;101733.31;5067807;28;8885;-65
2022/05/19 04:08:13;;;;;;;;;2.25;1.75;;;;;18.14;72.27;101773.72;5064734;28;8928;-65
2022/05/19 04:10:44;;;;;;;;;2.00;2.00;;;;;18.17;71.81;101844.16;5069907;28;9646;-63
2022/05/19 04:13:11;;;;;;;;;1.00;1.00;;;;;18.17;71.77;101890.47;5063889;28;9504;-63
2022/05/19 04:15:38;;;;;;;;;4.00;2.00;;;;;18.20;71.99;101900.94;5055831;28;8970;-64
2022/05/19 04:18:06;;;;;;;;;2.25;1.25;;;;;18.19;72.06;101885.66;5069359;28;8873;-64
2022/05/19 04:20:33;;;;;;;;;3.25;3.00;;;;;18.19;72.57;101906.59;5067024;28;8875;-64
2022/05/19 04:23:00;;;;;;;;;4.00;3.00;;;;;18.16;72.73;101890.72;5063968;28;8908;-65
2022/05/19 04:25:29;;;;;;;;;4.00;4.00;;;;;18.17;73.26;101892.38;5067925;28;8900;-64
2022/05/19 04:27:57;;;;;;;;;2.00;2.00;;;;;18.21;73.31;101852.72;5068907;28;8819;-63
2022/05/19 04:30:24;;;;;;;;;2.00;2.00;;;;;18.24;73.24;101844.13;5065694;28;8847;-64
2022/05/19 04:32:52;;;;;;;;;2.50;2.50;;;;;18.28;72.95;101862.53;5066449;28;9632;-64
2022/05/19 04:35:19;;;;;;;;;1.25;1.25;;;;;18.31;72.94;101820.38;5068145;28;8870;-64
2022/05/19 04:37:46;;;;;;;;;2.00;2.00;;;;;18.33;72.94;101809.25;5068448;28;8839;-63
2022/05/19 04:40:15;;;;;;;;;4.25;4.25;;;;;18.28;72.99;101760.84;5084841;28;8847;-64
2022/05/19 04:42:42;;;;;;;;;4.00;4.00;;;;;18.25;73.30;101723.13;5068151;28;8843;-64
2022/05/19 04:45:13;;;;;;;;;8.25;7.50;;;;;18.10;73.22;101693.50;5068340;28;8858;-63
2022/05/19 04:47:40;;;;;;;;;7.50;7.00;;;;;17.98;74.32;101747.88;5066823;28;8994;-63
2022/05/19 04:50:07;;;;;;;;;4.50;4.00;;;;;18.01;74.58;101782.00;5067871;28;8839;-63
2022/05/19 04:52:34;;;;;;;;;6.00;2.75;;;;;18.06;74.45;101759.56;5069157;28;8835;-64
2022/05/19 04:55:01;;;;;;;;;5.50;5.50;;;;;18.10;74.48;101775.22;5067087;28;8839;-63
2022/05/19 04:57:34;;;;;;;;;4.00;4.00;;;;;18.19;74.52;101770.34;5068063;28;8843;-65
2022/05/19 05:00:01;;;;;;;;;4.00;3.50;;;;;18.23;74.01;101788.78;5069269;28;8941;-65
2022/05/19 05:02:28;;;;;;;;;6.00;6.00;;;;;18.26;74.26;101807.38;5067220;28;8792;-65
2022/05/19 05:04:55;;;;;;;;;3.33;3.33;;;;;18.28;74.07;101797.13;5064861;28;8831;-65
2022/05/19 05:07:21;;;;;;;;;8.00;6.50;;;;;18.33;74.02;101795.63;5060659;28;8986;-64
2022/05/19 05:09:48;;;;;;;;;6.00;6.00;;;;;18.35;74.25;101788.88;5065442;28;9558;-64
2022/05/19 05:12:14;;;;;;;;;5.00;5.00;;;;;18.36;74.09;101776.91;5069449;28;8807;-64
2022/05/19 05:14:40;;;;;;;;;4.25;3.25;;;;;18.38;73.77;101776.69;5061174;28;9443;-65
2022/05/19 05:17:14;;;;;;;;;5.25;3.25;;;;;18.38;73.78;101760.34;5069522;28;8953;-64
2022/05/19 05:19:41;;;;;;;;;4.00;4.00;;;;;18.38;73.92;101752.97;5066784;28;8819;-64
2022/05/19 05:22:08;;;;;;;;;5.75;5.75;;;;;18.38;73.91;101750.25;5065655;28;8907;-64
2022/05/19 05:24:34;;;;;;;;;5.25;4.00;;;;;18.41;74.00;101740.81;5066042;28;8823;-65
2022/05/19 05:27:03;;;;;;;;;5.75;4.00;;;;;18.44;74.12;101734.91;5068019;28;9451;-65
2022/05/19 05:29:34;;;;;;;;;8.25;7.00;;;;;18.43;73.88;101717.72;5067329;28;8989;-65
2022/05/19 05:32:02;;;;;;;;;4.25;4.25;;;;;18.44;73.83;101713.94;5068822;28;8851;-65
2022/05/19 05:34:28;;;;;;;;;6.75;6.75;;;;;18.45;73.93;101706.59;5068000;28;8913;-65
2022/05/19 05:36:55;;;;;;;;;7.00;7.00;;;;;18.45;73.82;101699.22;5069087;28;8827;-68
2022/05/19 05:39:22;;;;;;;;;7.67;7.67;;;;;18.48;74.15;101687.06;5068169;28;9157;-65
2022/05/19 05:41:48;;;;;;;;;5.75;5.50;;;;;18.49;74.20;101677.81;5069728;28;8991;-65
2022/05/19 05:44:15;;;;;;;;;8.00;8.00;;;;;18.50;74.14;101672.13;5070330;28;8827;-65
2022/05/19 05:46:42;;;;;;;;;5.50;5.50;;;;;18.51;74.05;101662.03;5072138;28;9010;-65
2022/05/19 05:49:10;;;;;;;;;10.67;10.00;;;;;18.48;74.03;101662.53;5063216;28;8853;-65
2022/05/19 05:51:37;;;;;;;;;12.33;12.33;;;;;18.45;74.07;101669.25;5067425;28;9065;-66
2022/05/19 05:54:03;;;;;;;;;10.33;10.33;;;;;18.44;74.35;101669.50;5067714;28;8982;-65
2022/05/19 05:56:30;;;;;;;;;9.75;8.00;;;;;18.46;74.60;101670.91;5064897;28;9057;-65
2022/05/19 05:58:57;;;;;;;;;9.00;9.00;;;;;18.47;74.35;101672.59;5068025;28;8965;-65
2022/05/19 06:01:24;;;;;;;;;7.50;7.50;;;;;18.49;74.18;101669.63;5070453;28;8835;-66
2022/05/19 06:03:50;;;;;;;;;11.00;7.00;;;;;18.49;74.59;101661.44;5060150;28;8864;-65
2022/05/19 06:06:17;;;;;;;;;8.00;7.50;;;;;18.50;74.37;101663.13;5070665;28;8995;-66
2022/05/19 06:08:45;;;;;;;;;8.67;8.67;;;;;18.52;74.49;101653.66;5070296;28;8827;-65
2022/05/19 06:11:13;;;;;;;;;7.00;5.75;;;;;18.57;74.57;101660.31;5070266;28;8986;-65
2022/05/19 06:13:40;;;;;;;;;6.75;6.75;;;;;18.61;74.62;101661.53;5055632;28;8911;-65
2022/05/19 06:16:06;;;;;;;;;7.00;7.00;;;;;18.65;74.56;101657.28;5052548;28;8822;-66
2022/05/19 06:18:33;;;;;;;;;8.50;7.50;;;;;18.69;74.45;101655.78;5054856;28;8979;-66
2022/05/19 06:21:03;;;;;;;;;6.50;6.50;;;;;18.69;74.47;101653.88;5070741;28;8832;-65
2022/05/19 06:23:30;;;;;;;;;6.50;6.50;;;;;18.72;74.48;101658.09;5071711;28;8815;-65
2022/05/19 06:25:56;;;;;;;;;8.00;6.75;;;;;18.75;74.40;101657.59;5054255;28;8876;-65
2022/05/19 06:28:24;;;;;;;;;8.50;8.50;;;;;18.76;74.36;101651.94;5071610;28;8831;-65
2022/05/19 06:30:55;;;;;;;;;9.50;7.75;;;;;18.74;74.37;101639.56;5069103;28;8820;-65
2022/05/19 06:33:22;;;;;;;;;9.00;8.00;;;;;18.71;74.47;101651.75;5072121;28;8881;-65
2022/05/19 06:35:49;;;;;;;;;9.75;9.75;;;;;18.68;74.44;101660.41;5070000;28;8834;-64
2022/05/19 06:38:16;;;;;;;;;7.75;7.00;;;;;18.66;74.38;101662.50;5059248;28;8863;-65
2022/05/19 06:40:42;;;;;;;;;10.00;8.00;;;;;18.66;74.83;101670.69;5063477;28;9533;-66
2022/05/19 06:43:13;;;;;;;;;11.00;8.50;;;;;18.69;75.13;101663.94;5054263;28;8829;-66
2022/05/19 06:45:43;;;;;;;;;6.25;5.75;;;;;18.70;74.86;101663.75;5058112;28;8822;-68
2022/05/19 06:48:11;;;;;;;;;8.25;8.25;;;;;18.70;74.75;101671.94;5059264;28;8851;-66
2022/05/19 06:50:38;;;;;;;;;9.50;8.75;;;;;18.71;74.89;101667.31;5054997;28;8844;-65
2022/05/19 06:53:06;;;;;;;;;9.50;9.50;;;;;18.73;74.76;101670.66;5055472;28;8823;-65
2022/05/19 06:55:35;;;;;;;;;6.00;4.75;;;;;18.76;74.79;101665.56;5064794;23;9088;-66
2022/05/19 06:58:03;;;;;;;;;6.25;5.25;;;;;18.77;75.19;101675.41;5040674;28;8836;-66
2022/05/19 07:00:30;;;;;;;;;9.50;8.75;;;;;18.79;74.79;101680.63;5042567;28;8907;-65
2022/05/19 07:02:59;;;;;;;;;5.00;5.00;;;;;18.78;74.55;101687.16;5040999;28;8856;-67
2022/05/19 07:05:32;;;;;;;;;6.25;6.25;;;;;18.82;74.65;101701.19;5037159;28;8865;-66
2022/05/19 07:07:58;;;;;;;;;6.00;6.00;;;;;18.84;74.61;101709.94;5037467;28;9637;-65
2022/05/19 07:10:27;;;;;;;;;3.00;3.00;;;;;18.89;74.26;101712.84;5037903;28;8915;-65
2022/05/19 07:12:55;;;;;;;;;5.75;5.75;;;;;18.95;74.32;101704.56;5040030;28;8822;-65
2022/05/19 07:15:22;;;;;;;;;5.25;5.25;;;;;19.01;74.04;101700.94;5039499;28;8884;-65
2022/05/19 07:17:49;;;;;;;;;6.50;6.50;;;;;19.08;73.93;101697.28;5049835;28;9512;-65
2022/05/19 07:23:02;;;;;;;;;5.75;5.75;;;;;19.19;73.54;101691.88;5046503;28;9550;-66
2022/05/19 07:25:30;;;;;;;;;4.25;4.25;;;;;19.24;73.50;101681.13;5037263;28;8806;-66
2022/05/19 07:27:57;;;;;;;;;6.50;6.50;;;;;19.25;73.22;101680.03;5036649;28;8836;-66
2022/05/19 07:30:24;;;;;;;;;5.25;5.25;;;;;19.27;73.11;101680.63;5039282;28;8810;-66
2022/05/19 07:32:50;;;;;;;;;2.50;2.50;;;;;19.28;73.15;101676.00;5039202;28;8848;-66
2022/05/19 07:35:17;;;;;;;;;5.75;4.25;;;;;19.27;73.13;101671.59;5046699;28;8858;-66
2022/05/19 07:37:44;;;;;;;;;1.25;1.25;;;;;19.23;72.97;101667.69;5046538;28;9525;-66
2022/05/19 07:40:11;;;;;;;;;4.00;4.00;;;;;19.22;73.00;101674.22;5049233;28;8903;-66
2022/05/19 07:42:38;;;;;;;;;4.25;4.00;;;;;19.23;73.06;101673.97;5044611;28;8947;-66
2022/05/19 07:45:06;;;;;;;;;5.50;4.00;;;;;19.25;73.11;101687.41;5046206;28;8823;-66
2022/05/19 07:47:32;;;;;;;;;1.75;1.75;;;;;19.24;72.67;101696.63;5048615;28;8830;-66
2022/05/19 07:49:59;;;;;;;;;4.00;4.00;;;;;19.21;72.83;101684.28;5047980;28;8903;-67
2022/05/19 07:52:32;;;;;;;;;3.75;3.75;;;;;19.25;73.08;101682.78;5047688;28;8885;-66
2022/05/19 07:55:00;;;;;;;;;4.00;4.00;;;;;19.31;72.93;101691.09;5044755;28;8826;-66
2022/05/19 07:57:28;;;;;;;;;1.00;1.00;;;;;19.36;72.84;101694.78;5033880;28;8840;-66
2022/05/19 07:59:54;;;;;;;;;4.75;4.00;;;;;19.42;72.91;101693.03;5034611;28;8853;-66
2022/05/19 08:02:21;;;;;;;;;3.50;3.50;;;;;19.48;72.64;101697.56;5045391;28;8846;-66
2022/05/19 08:04:48;;;;;;;;;3.25;3.25;;;;;19.49;72.60;101691.88;5045875;28;8838;-66
2022/05/19 08:07:15;;;;;;;;;3.75;3.75;;;;;19.47;72.65;101694.00;5046478;28;8841;-66
2022/05/19 08:15:35;;;;;;;;;3.75;3.75;;;;;19.47;72.71;101694.00;5044278;28;8834;-66
2022/05/19 08:18:17;;;;;;;;;2.75;2.50;;;;;19.44;72.63;101693.63;5040537;28;8852;-66
2022/05/19 08:20:47;;;;;;;;;3.00;3.00;;;;;19.45;72.57;101704.34;5045799;28;8871;-66
2022/05/19 08:23:20;;;;;;;;;4.50;4.50;;;;;19.47;72.47;101715.84;5048245;28;8833;-67
2022/05/19 08:25:47;;;;;;;;;3.00;3.00;;;;;19.46;72.53;101710.63;5035911;28;8854;-66
2022/05/19 08:28:16;;;;;;;;;4.25;4.25;;;;;19.48;73.14;101705.75;5033772;28;8841;-67
2022/05/19 08:30:46;;;;;;;;;4.25;4.25;;;;;19.50;72.96;101715.38;5038147;28;8864;-67
2022/05/19 08:33:18;;;;;;;;;3.25;3.25;;;;;19.54;72.97;101713.03;5041346;28;9752;-67
2022/05/19 08:35:44;;;;;;;;;5.25;5.25;;;;;19.59;72.92;101731.44;5039042;28;9521;-68
2022/05/19 08:38:11;;;;;;;;;4.00;4.00;;;;;19.60;72.75;101731.19;5034311;28;8853;-67
2022/05/19 08:40:47;;;;;;;;;5.00;5.00;;;;;19.63;72.79;101725.31;5033974;28;8816;-65
2022/05/19 08:43:17;;;;;;;;;4.75;4.75;;;;;19.64;72.62;101721.50;5037083;28;8826;-66
2022/05/19 08:45:48;;;;;;;;;3.75;3.75;;;;;19.71;72.65;101721.41;5033069;28;8821;-66
2022/05/19 08:48:20;;;;;;;;;7.00;5.75;;;;;19.79;72.66;101718.34;5035475;28;8968;-66
2022/05/19 08:51:05;;;;;;;;;3.50;3.50;;;;;19.91;72.80;101710.16;5036506;28;8833;-66
2022/05/19 08:53:36;;;;;;;;;6.50;6.50;;;;;19.96;72.37;101691.16;5035788;28;8887;-65
2022/05/19 08:56:21;;;;;;;;;8.50;7.75;;;;;19.99;72.44;101671.56;5035968;28;8887;-66
2022/05/19 08:59:05;;;;;;;;;9.25;9.25;;;;;20.02;72.36;101670.28;5035370;28;8886;-66
2022/05/19 09:01:50;;;;;;;;;15.25;11.50;;;;;20.07;72.27;101667.66;5041562;28;8861;-67
2022/05/19 09:04:26;;;;;;;;;15.00;14.25;;;;;20.09;72.28;101665.50;5041566;28;9539;-67
2022/05/19 09:10:41;;;;;;;;;14.50;14.00;;;;;20.14;72.62;101651.97;5034670;28;8829;-66
2022/05/19 09:13:16;;;;;;;;;12.00;12.00;;;;;20.20;72.71;101649.09;5005388;28;8902;-68
2022/05/19 09:15:45;;;;;;;;;12.00;12.00;;;;;20.26;72.91;101647.31;5041779;28;8829;-68
2022/05/19 09:18:14;;;;;;;;;14.75;11.50;;;;;20.38;72.83;101655.53;5040831;28;8825;-67
2022/05/19 09:20:53;;;;;;;;;11.00;11.00;;;;;20.49;71.95;101660.97;5043145;28;8883;-67
2022/05/19 09:23:21;;;;;;;;;12.25;10.25;;;;;20.55;72.02;101659.22;5038038;28;8818;-67
2022/05/19 09:25:52;;;;;;;;;13.50;10.75;;;;;20.61;71.32;101658.22;5043757;28;8814;-67
2022/05/19 09:28:19;;;;;;;;;12.25;12.25;;;;;20.56;70.95;101663.59;5052756;28;8894;-65
2022/05/19 09:30:50;;;;;;;;;9.50;9.00;;;;;20.52;70.87;101667.88;5040107;28;9002;-65
2022/05/19 09:33:28;;;;;;;;;6.00;6.00;;;;;20.60;70.93;101670.25;5038874;28;9233;-65
2022/05/19 09:35:58;;;;;;;;;10.00;9.00;;;;;20.71;71.11;101677.59;5039503;28;8837;-66
2022/05/19 09:38:36;;;;;;;;;7.50;7.50;;;;;20.77;70.78;101677.72;5039750;28;8842;-66
2022/05/19 09:41:21;;;;;;;;;4.25;4.25;;;;;20.85;70.78;101683.63;5038726;28;8828;-67
2022/05/19 09:43:56;;;;;;;;;9.25;8.75;;;;;20.92;70.78;101672.56;5037965;28;8844;-65
2022/05/19 09:46:24;;;;;;;;;7.00;7.00;;;;;20.94;70.84;101662.19;5039846;28;8860;-67
2022/05/19 09:49:01;;;;;;;;;5.00;5.00;;;;;20.97;70.84;101658.97;5040633;28;8841;-66
2022/05/19 09:51:43;;;;;;;;;10.25;10.25;;;;;20.94;70.23;101664.91;5041419;28;8884;-66
2022/05/19 09:54:13;;;;;;;;;8.25;6.50;;;;;20.89;69.78;101660.19;5040439;28;8841;-67
2022/05/19 09:56:52;;;;;;;;;4.50;4.50;;;;;20.88;69.38;101661.25;5040022;28;9709;-67
2022/05/19 09:59:20;;;;;;;;;4.75;4.25;;;;;20.91;69.63;101658.03;5038265;28;8821;-67
2022/05/19 10:01:49;;;;;;;;;4.00;4.00;;;;;20.90;69.26;101659.13;5039577;28;8856;-67
2022/05/19 10:04:25;;;;;;;;;5.00;5.00;;;;;20.91;69.35;101649.81;5044599;28;8941;-67
2022/05/19 10:06:57;;;;;;;;;7.75;7.75;;;;;20.94;69.28;101645.75;5052257;28;8833;-66
2022/05/19 10:09:30;;;;;;;;;5.50;5.50;;;;;20.97;69.42;101637.88;5045925;28;8817;-66
2022/05/19 10:12:09;;;;;;;;;7.50;7.50;;;;;21.07;69.49;101642.75;5044880;28;8845;-67
2022/05/19 10:14:36;;;;;;;;;8.50;8.50;;;;;21.14;69.30;101628.88;5040875;28;8849;-66
2022/05/19 10:17:18;;;;;;;;;9.00;9.00;;;;;21.31;69.29;101618.81;5044283;28;8865;-67
2022/05/19 10:20:03;;;;;;;;;7.00;7.00;;;;;21.48;68.93;101602.44;5032214;28;8955;-68
2022/05/19 10:23:04;;;;;;;;;7.00;7.00;;;;;21.63;68.50;101597.22;5044085;28;8926;-66
2022/05/19 10:25:49;;;;;;;;;8.50;6.00;;;;;21.82;68.04;101591.44;5034895;28;8855;-66
2022/05/19 10:31:34;;;;;;;;;6.25;4.50;;;;;21.95;65.00;101582.88;5040374;28;9449;-66
2022/05/19 10:34:46;;;;;;;;;4.25;4.25;;;;;22.04;63.15;101596.97;5036693;28;8834;-65
2022/05/19 10:37:27;;;;;;;;;5.25;5.25;;;;;22.07;63.50;101607.44;5040531;28;8826;-69
2022/05/19 10:40:26;;;;;;;;;4.25;4.25;;;;;22.11;63.23;101614.06;5036185;28;9489;-68
2022/05/19 10:43:06;;;;;;;;;3.50;3.50;;;;;22.14;62.90;101622.66;5042603;28;9008;-67
2022/05/19 10:45:37;;;;;;;;;3.75;3.75;;;;;22.13;62.61;101620.19;5038383;28;8854;-67
2022/05/19 10:48:15;;;;;;;;;4.25;4.25;;;;;22.15;62.80;101637.19;5036077;28;8853;-67
2022/05/19 10:51:00;;;;;;;;;4.25;3.50;;;;;22.11;63.22;101641.50;5038798;28;9552;-67
2022/05/19 10:53:44;;;;;;;;;3.00;3.00;;;;;22.01;63.61;101658.63;5036876;28;9228;-68
2022/05/19 10:56:25;;;;;;;;;3.75;3.00;;;;;21.91;63.99;101678.47;5033861;28;9615;-68
2022/05/19 10:59:05;;;;;;;;;3.00;3.00;;;;;21.81;63.81;101685.72;5036260;28;8826;-66
2022/05/19 11:01:50;;;;;;;;;2.50;2.50;;;;;21.73;64.00;101673.25;5043266;28;8856;-66
2022/05/19 11:04:41;;;;;;;;;2.00;2.00;;;;;21.67;64.36;101669.63;5045340;28;8934;-66
2022/05/19 11:07:49;;;;;;;;;1.00;1.00;;;;;21.61;64.59;101684.28;5049864;28;8817;-66
2022/05/19 11:10:36;;;;;;;;;2.00;2.00;;;;;21.57;64.60;101691.34;5050036;28;8842;-67
2022/05/19 11:13:37;;;;;;;;;2.25;2.25;;;;;21.53;64.74;101700.31;5043460;28;8907;-68
2022/05/19 11:16:31;;;;;;;;;2.50;1.25;;;;;21.50;65.03;101706.25;5040947;28;8915;-67
2022/05/19 11:19:06;;;;;;;;;2.00;2.00;;;;;21.47;65.16;101700.22;5047794;28;8884;-66
2022/05/19 11:21:36;;;;;;;;;2.00;2.00;;;;;21.44;65.18;101719.88;5039232;28;8833;-66
2022/05/19 11:24:25;;;;;;;;;11.25;10.00;;;;;21.30;64.73;101726.69;5037439;28;8998;-65
2022/05/19 11:26:55;;;;;;;;;5.00;5.00;;;;;21.16;64.23;101736.28;5048377;28;8903;-66
2022/05/19 11:29:41;;;;;;;;;4.00;3.50;;;;;21.05;63.69;101742.59;5035833;28;8824;-66
2022/05/19 11:32:13;;;;;;;;;3.00;3.00;;;;;20.94;64.63;101763.44;5049286;28;8802;-66
2022/05/19 11:34:55;;;;;;;;;3.00;3.00;;;;;20.79;65.23;101804.19;5049904;28;8838;-66
2022/05/19 11:37:59;;;;;;;;;3.25;2.00;;;;;20.59;66.57;101864.72;5033931;28;8821;-66
2022/05/19 11:40:47;;;;;;;;;3.25;3.00;;;;;20.34;67.99;101884.88;5045637;28;8900;-65
2022/05/19 11:43:32;;;;;;;;;5.75;5.75;;;;;20.09;69.33;101893.19;5051085;28;8899;-65
2022/05/19 11:46:03;;;;;;;;;8.00;8.00;;;;;19.95;70.23;101883.53;5049966;28;9584;-66
2022/05/19 11:57:45;;;;;;;;;10.25;10.25;;;;;19.61;72.94;101860.44;5039557;28;8828;-67
2022/05/19 12:00:18;;;;;;;;;3.75;3.75;;;;;19.57;72.96;101843.66;5040823;28;8863;-67
2022/05/19 12:02:47;;;;;;;;;8.25;8.25;;;;;19.51;73.22;101856.31;5036251;28;8853;-67
2022/05/19 12:05:38;;;;;;;;;10.75;10.75;;;;;19.52;73.15;101865.34;5034074;28;8937;-67
2022/05/19 12:08:28;;;;;;;;;9.00;9.00;;;;;19.54;73.50;101867.88;5039110;28;8814;-67
2022/05/19 12:11:08;;;;;;;;;10.00;10.00;;;;;19.55;73.44;101864.06;5037363;28;8825;-67
2022/05/19 12:13:36;;;;;;;;;8.50;8.50;;;;;19.55;73.62;101862.16;5034833;28;8997;-68
2022/05/19 12:16:11;;;;;;;;;8.00;8.00;;;;;19.56;73.46;101858.34;5036618;28;8840;-67